Main page
METAR-TAF:

METAR-TAF

Airports :

Zaragoza, Spain

Zaragoza Airport

latitude: 41-40N, longitude: 001-01W, elevation: 263 m

Current weather observation

The report was made 31 minutes ago, at 07:00 UTC
Wind 4 kt from the West/Southwest
Temperature -1°C
Humidity 93%
Pressure 1018 hPa
Visibility 10 km or more
no clouds below 1500 m and no cumulonimbus

METAR: LEZG 220700Z 25004KT CAVOK M01/M02 Q1018

Time: 08:31 (07:31 UTC)

Forecast

The report was made 2 hours and 31 minutes ago, at 05:00 UTC
Forecast valid from 22 at 06 UTC to 23 at 06 UTC
Wind 3 kt from variable directions
Visibility: 9000 m
Few clouds at a height of 3000 ft
Becoming
from 22 at 09 UTC to 22 at 11 UTC
Wind 9 kt from the East

TAF: LEZG 220500Z 2206/2306 VRB03KT 9000 FEW030 TX17/2212Z TN01/2206Z BECMG 2209/2211 10009KT

Weather observations and forecasts of more than 4000 airports (METAR and TAF reports).

The available stations are represented by yellow and red dots on the map.

Hover mouse over dot to see the name of the station.

Then click to see weather observations and forecasts.

To change the map : click on the green buttons with a black cross to zoom in, on the green button with a dash to zoom out, or on the green arrows for adjacent maps.


METAR-TAF: